createdAt,value
2022-11-04T00:01:49.709Z,3.85
2022-11-04T00:04:18.557Z,1.23
2022-11-04T00:06:45.359Z,4.85
2022-11-04T00:09:16.332Z,3.33
2022-11-04T00:12:01.440Z,4.03
2022-11-04T00:14:30.322Z,2.60
2022-11-04T00:17:16.695Z,4.20
2022-11-04T00:20:01.748Z,1.45
2022-11-04T00:22:47.010Z,2.63
2022-11-04T00:25:32.544Z,1.77
2022-11-04T00:28:29.700Z,3.58
2022-11-04T00:30:57.962Z,2.97
2022-11-04T00:33:27.774Z,1.35
2022-11-04T00:35:56.771Z,3.03
2022-11-04T00:38:25.051Z,5.63
2022-11-04T00:40:51.991Z,1.35
2022-11-04T00:43:18.388Z,2.13
2022-11-04T00:45:44.799Z,2.60
2022-11-04T00:48:11.459Z,7.93
2022-11-04T00:50:37.915Z,2.58
2022-11-04T00:53:04.503Z,2.97
2022-11-04T00:55:30.870Z,3.67
2022-11-04T00:57:58.403Z,5.55
2022-11-04T01:00:24.747Z,7.28
2022-11-04T01:02:51.236Z,3.15
2022-11-04T01:05:17.704Z,1.58
2022-11-04T01:07:44.188Z,3.33
2022-11-04T01:10:10.861Z,2.90
2022-11-04T01:12:37.202Z,4.78
2022-11-04T01:15:03.967Z,2.40
2022-11-04T01:17:30.331Z,3.47
2022-11-04T01:19:56.668Z,3.87
2022-11-04T01:22:23.009Z,2.83
2022-11-04T01:24:49.332Z,4.18
2022-11-04T01:27:15.653Z,2.72
2022-11-04T01:29:42.165Z,3.00
2022-11-04T01:32:08.562Z,5.83
2022-11-04T01:34:39.218Z,3.47
2022-11-04T01:37:08.865Z,1.60
2022-11-04T01:39:35.238Z,4.53
2022-11-04T01:42:01.642Z,2.88
2022-11-04T01:44:51.661Z,3.57
2022-11-04T01:47:20.118Z,2.55
2022-11-04T01:49:50.715Z,2.30
2022-11-04T01:52:24.214Z,3.15
2022-11-04T01:54:53.418Z,3.65
2022-11-04T01:57:26.384Z,3.03
2022-11-04T01:59:52.866Z,1.25
2022-11-04T02:02:19.323Z,1.85
2022-11-04T02:04:46.026Z,1.13
2022-11-04T02:07:12.478Z,0.90
2022-11-04T02:09:40.369Z,3.80
2022-11-04T02:12:25.345Z,1.75
2022-11-04T02:14:53.338Z,3.03
2022-11-04T02:17:19.589Z,1.77
2022-11-04T02:19:58.674Z,1.48
2022-11-04T02:22:31.094Z,0.30
2022-11-04T02:25:03.665Z,0.50
2022-11-04T02:28:04.749Z,1.25
2022-11-04T02:31:04.195Z,2.08
2022-11-04T02:34:08.046Z,0.60
2022-11-04T02:36:47.518Z,6.13
2022-11-04T02:39:41.425Z,0.65
2022-11-04T02:42:30.381Z,2.28
2022-11-04T02:45:38.290Z,2.85
2022-11-04T02:48:15.410Z,1.02
2022-11-04T02:50:45.514Z,1.70
2022-11-04T02:53:23.630Z,3.67
2022-11-04T02:55:55.267Z,3.53
2022-11-04T02:58:27.413Z,2.17
2022-11-04T03:00:56.861Z,1.73
2022-11-04T03:03:28.483Z,1.80
2022-11-04T03:05:56.771Z,0.77
2022-11-04T03:08:30.479Z,2.67
2022-11-04T03:11:04.914Z,2.05
2022-11-04T03:13:48.818Z,2.58
2022-11-04T03:16:23.353Z,0.30
2022-11-04T03:19:11.267Z,1.95
2022-11-04T03:21:55.363Z,1.75
2022-11-04T03:24:21.935Z,3.33
2022-11-04T03:27:07.442Z,1.85
2022-11-04T03:29:39.324Z,0.40
2022-11-04T03:32:36.571Z,0.80
2022-11-04T03:35:03.038Z,0.73
2022-11-04T03:37:29.837Z,0.85
2022-11-04T03:39:56.231Z,1.63
2022-11-04T03:42:23.484Z,1.17
2022-11-04T03:44:52.152Z,1.13
2022-11-04T03:47:21.022Z,1.20
2022-11-04T03:49:55.534Z,2.85
2022-11-04T03:52:21.919Z,3.53
2022-11-04T03:54:48.422Z,1.53
2022-11-04T03:57:35.706Z,2.10
2022-11-04T04:00:12.895Z,4.25
2022-11-04T04:02:45.657Z,3.35
2022-11-04T04:05:27.177Z,1.60
2022-11-04T04:08:41.796Z,0.90
2022-11-04T04:11:19.732Z,6.45
2022-11-04T04:13:55.664Z,2.63
2022-11-04T04:16:34.479Z,2.35
2022-11-04T04:19:23.930Z,1.90
2022-11-04T04:22:02.377Z,1.43
2022-11-04T04:25:07.150Z,3.38
2022-11-04T04:27:35.173Z,4.50
2022-11-04T04:30:07.653Z,4.28
2022-11-04T04:32:46.868Z,4.80
2022-11-04T04:35:32.911Z,4.80
2022-11-04T04:38:21.410Z,11.82
2022-11-04T04:41:20.656Z,15.88
2022-11-04T04:44:05.844Z,14.80
2022-11-04T04:46:32.651Z,16.00
2022-11-04T04:49:09.333Z,16.87
2022-11-04T04:51:40.608Z,19.67
2022-11-04T04:54:07.157Z,13.20
2022-11-04T04:56:33.484Z,12.95
2022-11-04T04:58:59.822Z,15.60
2022-11-04T05:01:26.269Z,15.13
2022-11-04T05:03:52.702Z,12.20
2022-11-04T05:06:19.048Z,16.48
2022-11-04T05:08:45.391Z,14.15
2022-11-04T05:11:12.250Z,11.45
2022-11-04T05:13:38.757Z,12.00
2022-11-04T05:16:07.439Z,11.93
2022-11-04T05:18:34.640Z,17.38
2022-11-04T05:21:05.489Z,18.20
2022-11-04T05:23:32.100Z,15.20
2022-11-04T05:25:59.119Z,12.93
2022-11-04T05:28:25.493Z,14.70
2022-11-04T05:30:51.893Z,11.68
2022-11-04T05:33:18.268Z,13.70
2022-11-04T05:35:44.814Z,19.55
2022-11-04T05:38:11.214Z,10.83
2022-11-04T05:40:37.568Z,13.73
2022-11-04T05:43:03.924Z,10.38
2022-11-04T05:45:30.597Z,15.98
2022-11-04T05:48:01.994Z,11.63
2022-11-04T05:50:30.557Z,11.03
2022-11-04T05:52:58.257Z,9.98
2022-11-04T05:55:25.186Z,21.42
2022-11-04T05:57:51.667Z,9.57
2022-11-04T06:00:18.813Z,26.88
2022-11-04T06:02:45.271Z,7.77
2022-11-04T06:05:11.799Z,24.05
2022-11-04T06:07:38.144Z,30.73
2022-11-04T06:10:04.761Z,7.78
2022-11-04T06:12:31.110Z,9.77
2022-11-04T06:14:57.443Z,10.90
2022-11-04T06:17:23.944Z,8.13
2022-11-04T06:19:50.468Z,8.02
2022-11-04T06:22:19.370Z,7.00
2022-11-04T06:24:45.773Z,6.90
2022-11-04T06:27:12.606Z,12.60
2022-11-04T06:29:42.040Z,7.68
2022-11-04T06:32:13.936Z,8.73
2022-11-04T06:34:40.551Z,11.93
2022-11-04T06:37:07.404Z,13.30
2022-11-04T06:39:33.766Z,14.60
2022-11-04T06:42:02.501Z,14.63
2022-11-04T06:44:29.692Z,11.93
2022-11-04T06:46:56.171Z,17.08
2022-11-04T06:49:23.164Z,11.45
2022-11-04T06:51:50.035Z,12.13
2022-11-04T06:54:17.524Z,11.10
2022-11-04T06:56:44.729Z,12.63
2022-11-04T06:59:17.780Z,12.52
2022-11-04T07:01:44.791Z,10.90
2022-11-04T07:04:11.238Z,11.17
2022-11-04T07:06:39.830Z,12.77
2022-11-04T07:09:11.425Z,11.90
2022-11-04T07:11:38.060Z,9.88
2022-11-04T07:14:04.463Z,13.98
2022-11-04T07:16:30.892Z,9.50
2022-11-04T07:18:57.276Z,9.70
2022-11-04T07:21:23.941Z,12.00
2022-11-04T07:23:50.440Z,12.13
2022-11-04T07:26:16.880Z,9.38
2022-11-04T07:28:43.386Z,10.23
2022-11-04T07:31:11.883Z,10.13
2022-11-04T07:33:38.258Z,9.30
2022-11-04T07:36:06.571Z,15.50
2022-11-04T07:38:33.344Z,5.88
2022-11-04T07:40:59.819Z,9.53
2022-11-04T07:43:26.163Z,8.40
2022-11-04T07:46:00.451Z,7.55
2022-11-04T07:48:27.342Z,8.15
2022-11-04T07:50:59.667Z,9.05
2022-11-04T07:53:27.289Z,11.67
2022-11-04T07:55:53.685Z,6.10
2022-11-04T07:58:20.945Z,7.95
2022-11-04T08:00:47.397Z,8.80
2022-11-04T08:03:14.361Z,8.65
2022-11-04T08:05:41.094Z,8.67
2022-11-04T08:08:07.710Z,10.15
2022-11-04T08:10:34.914Z,10.43
2022-11-04T08:13:01.315Z,11.38
2022-11-04T08:15:29.106Z,7.05
2022-11-04T08:17:55.495Z,7.70
2022-11-04T08:20:21.840Z,9.68
2022-11-04T08:22:48.400Z,9.02
2022-11-04T08:25:14.805Z,7.07
2022-11-04T08:27:41.260Z,8.40
2022-11-04T08:30:08.725Z,6.97
2022-11-04T08:32:35.383Z,7.38
2022-11-04T08:35:01.707Z,7.85
2022-11-04T08:37:28.049Z,5.95
2022-11-04T08:39:54.385Z,5.22
2022-11-04T08:42:20.715Z,9.20
2022-11-04T08:44:51.059Z,8.48
2022-11-04T08:47:18.001Z,10.05
2022-11-04T08:49:44.557Z,17.60
2022-11-04T08:52:10.989Z,10.75
2022-11-04T08:54:37.400Z,7.80
2022-11-04T08:57:03.909Z,11.27
2022-11-04T08:59:30.245Z,8.55
2022-11-04T09:01:56.621Z,6.57
2022-11-04T09:04:23.098Z,9.38
2022-11-04T09:06:51.094Z,8.97
2022-11-04T09:09:18.204Z,7.60
2022-11-04T09:11:46.204Z,4.03
2022-11-04T09:14:12.996Z,10.77
2022-11-04T09:16:40.675Z,7.90
2022-11-04T09:19:07.499Z,10.77
2022-11-04T09:21:34.162Z,6.55
2022-11-04T09:24:00.532Z,8.98
2022-11-04T09:26:26.961Z,9.65
2022-11-04T09:28:58.419Z,13.73
2022-11-04T09:31:26.861Z,7.43
2022-11-04T09:33:55.047Z,6.68
2022-11-04T09:36:21.753Z,9.13
2022-11-04T09:38:48.115Z,7.70
2022-11-04T09:41:20.478Z,10.35
2022-11-04T09:44:30.246Z,6.93
2022-11-04T09:47:02.971Z,9.80
2022-11-04T09:49:36.188Z,9.63
2022-11-04T09:52:17.298Z,12.68
2022-11-04T09:54:52.762Z,12.93
2022-11-04T09:57:19.818Z,8.20
2022-11-04T09:59:47.641Z,8.20
2022-11-04T10:02:27.794Z,10.43
2022-11-04T10:05:12.315Z,10.07
2022-11-04T10:08:03.449Z,11.13
2022-11-04T10:10:57.891Z,14.77
2022-11-04T10:13:39.301Z,10.80
2022-11-04T10:16:36.672Z,9.02
2022-11-04T10:19:21.641Z,9.43
2022-11-04T10:22:01.966Z,14.82
2022-11-04T10:25:02.831Z,13.37
2022-11-04T10:27:34.605Z,10.80
2022-11-04T10:30:04.672Z,8.60
2022-11-04T10:32:46.186Z,7.70
2022-11-04T10:35:34.327Z,8.55
2022-11-04T10:38:25.808Z,10.23
2022-11-04T10:40:54.242Z,12.25
2022-11-04T10:43:40.418Z,10.10
2022-11-04T10:46:12.767Z,8.90
2022-11-04T10:49:00.349Z,10.40
2022-11-04T10:51:26.766Z,16.27
2022-11-04T10:53:59.478Z,9.38
2022-11-04T10:56:38.068Z,12.93
2022-11-04T10:59:23.510Z,9.23
2022-11-04T11:01:52.905Z,9.90
2022-11-04T11:04:25.685Z,11.97
2022-11-04T11:06:53.419Z,13.68
2022-11-04T11:09:29.317Z,10.07
2022-11-04T11:15:27.271Z,9.70
2022-11-04T11:18:01.187Z,10.80
2022-11-04T11:20:27.674Z,11.35
2022-11-04T11:22:54.833Z,9.13
2022-11-04T11:25:31.851Z,10.15
2022-11-04T11:28:10.946Z,11.98
2022-11-04T11:30:57.086Z,11.47
2022-11-04T11:33:28.373Z,10.48
2022-11-04T11:36:00.503Z,12.75
2022-11-04T11:38:29.457Z,9.13
2022-11-04T11:41:24.992Z,8.90
2022-11-04T11:43:55.003Z,10.23
2022-11-04T11:46:27.958Z,11.27
2022-11-04T11:49:01.459Z,6.95
2022-11-04T11:51:36.808Z,6.65
2022-11-04T11:54:15.082Z,12.82
2022-11-04T11:57:11.973Z,8.27
2022-11-04T12:03:10.021Z,9.07
2022-11-04T12:12:04.170Z,10.43
2022-11-04T12:14:55.174Z,9.50
2022-11-04T12:17:40.289Z,10.77
2022-11-04T12:20:24.782Z,11.10
2022-11-04T12:22:59.704Z,8.15
2022-11-04T12:26:15.686Z,7.10
2022-11-04T12:28:53.675Z,4.40
2022-11-04T12:31:29.439Z,5.93
2022-11-04T12:34:11.621Z,6.85
2022-11-04T12:36:51.545Z,6.90
2022-11-04T12:39:23.990Z,3.47
2022-11-04T12:42:21.861Z,6.97
2022-11-04T12:45:13.043Z,2.67
2022-11-04T12:47:43.777Z,4.75
2022-11-04T12:50:13.231Z,4.97
2022-11-04T12:53:03.847Z,2.70
2022-11-04T12:55:44.077Z,5.30
2022-11-04T12:58:39.308Z,4.50
2022-11-04T13:01:15.802Z,3.28
2022-11-04T13:03:55.925Z,3.55
2022-11-04T13:06:45.092Z,2.77
2022-11-04T13:09:35.656Z,3.58
2022-11-04T13:12:11.383Z,5.47
2022-11-04T13:14:48.119Z,2.58
2022-11-04T13:17:20.518Z,3.85
2022-11-04T13:19:51.928Z,3.23
2022-11-04T13:22:29.471Z,6.88
2022-11-04T13:25:04.236Z,6.68
2022-11-04T13:27:36.509Z,4.78
2022-11-04T13:30:21.935Z,2.92
2022-11-04T13:32:56.268Z,3.50
2022-11-04T13:35:33.405Z,2.75
2022-11-04T13:38:05.974Z,2.20
2022-11-04T13:40:49.557Z,0.75
2022-11-04T13:43:39.771Z,1.27
2022-11-04T13:46:09.086Z,0.93
2022-11-04T13:48:39.920Z,1.02
2022-11-04T13:51:14.392Z,0.85
2022-11-04T13:53:42.233Z,2.25
2022-11-04T13:56:31.506Z,0.32
2022-11-04T13:59:01.001Z,1.53
2022-11-04T14:01:30.512Z,1.67
2022-11-04T14:04:20.138Z,0.43
2022-11-04T14:06:58.967Z,0.35
2022-11-04T14:09:46.651Z,3.13
2022-11-04T14:12:19.496Z,3.83
2022-11-04T14:14:51.896Z,0.82
2022-11-04T14:17:33.619Z,0.45
2022-11-04T14:20:06.538Z,1.92
2022-11-04T14:22:45.550Z,2.58
2022-11-04T14:25:29.134Z,1.47
2022-11-04T14:28:09.187Z,1.02
2022-11-04T14:30:54.002Z,3.88
2022-11-04T14:33:36.283Z,1.38
2022-11-04T14:36:20.889Z,1.85
2022-11-04T14:39:12.149Z,1.93
2022-11-04T14:41:41.883Z,1.23
2022-11-04T14:44:34.580Z,0.90
2022-11-04T14:47:13.650Z,4.18
2022-11-04T14:49:45.059Z,2.90
2022-11-04T14:52:28.727Z,1.67
2022-11-04T14:55:03.809Z,3.42
2022-11-04T14:57:35.887Z,1.02
2022-11-04T15:00:25.526Z,2.65
2022-11-04T15:03:13.123Z,4.15
2022-11-04T15:06:00.415Z,2.77
2022-11-04T15:08:40.324Z,1.92
2022-11-04T15:11:17.830Z,2.03
2022-11-04T15:13:57.024Z,1.33
2022-11-04T15:16:29.780Z,1.55
2022-11-04T15:18:58.407Z,7.00
2022-11-04T15:21:25.374Z,2.65
2022-11-04T15:23:56.612Z,2.78
2022-11-04T15:26:30.238Z,2.15
2022-11-04T15:29:08.866Z,1.42
2022-11-04T15:31:36.510Z,1.67
2022-11-04T15:34:13.156Z,4.55
2022-11-04T15:36:43.644Z,4.38
2022-11-04T15:39:34.322Z,6.00
2022-11-04T15:42:23.193Z,0.90
2022-11-04T15:44:54.918Z,4.07
2022-11-04T15:47:28.856Z,2.75
2022-11-04T15:50:14.618Z,3.80
2022-11-04T15:52:51.253Z,1.42
2022-11-04T15:55:24.103Z,2.88
2022-11-04T15:57:51.625Z,7.10
2022-11-04T16:00:17.901Z,4.25
2022-11-04T16:02:50.357Z,2.55
2022-11-04T16:05:16.838Z,3.05
2022-11-04T16:07:45.591Z,1.25
2022-11-04T16:10:35.060Z,5.93
2022-11-04T16:13:20.121Z,2.28
2022-11-04T16:15:58.734Z,3.25
2022-11-04T16:18:45.229Z,1.42
2022-11-04T16:21:30.593Z,1.20
2022-11-04T16:24:04.373Z,4.17
2022-11-04T16:26:40.254Z,5.20
2022-11-04T16:29:09.665Z,1.48
2022-11-04T16:31:37.122Z,4.13
2022-11-04T16:34:04.161Z,5.55
2022-11-04T16:36:35.354Z,5.13
2022-11-04T16:39:04.632Z,3.97
2022-11-04T16:41:36.406Z,3.15
2022-11-04T16:44:05.034Z,2.60
2022-11-04T16:46:34.413Z,3.95
2022-11-04T16:49:00.775Z,3.03
2022-11-04T16:51:27.163Z,2.72
2022-11-04T16:53:54.823Z,2.30
2022-11-04T16:56:24.602Z,2.22
2022-11-04T16:58:52.015Z,4.60
2022-11-04T17:01:19.098Z,3.00
2022-11-04T17:03:45.684Z,1.77
2022-11-04T17:06:14.423Z,2.88
2022-11-04T17:08:41.981Z,1.90
2022-11-04T17:11:09.893Z,5.40
2022-11-04T17:13:37.180Z,3.13
2022-11-04T17:16:04.542Z,3.33
2022-11-04T17:18:32.300Z,2.30
2022-11-04T17:20:59.347Z,2.30
2022-11-04T17:23:25.689Z,2.88
2022-11-04T17:25:52.936Z,1.50
2022-11-04T17:28:19.358Z,2.22
2022-11-04T17:30:45.796Z,4.38
2022-11-04T17:33:17.356Z,3.03
2022-11-04T17:35:48.230Z,2.50
2022-11-04T17:38:15.452Z,2.40
2022-11-04T17:41:01.065Z,4.68
2022-11-04T17:43:45.949Z,5.30
2022-11-04T17:46:31.742Z,3.33
2022-11-04T17:48:58.481Z,1.65
2022-11-04T17:51:24.979Z,5.27
2022-11-04T17:53:51.339Z,4.70
2022-11-04T17:56:19.421Z,3.45
2022-11-04T17:58:45.844Z,2.95
2022-11-04T18:01:14.355Z,2.58
2022-11-04T18:03:41.002Z,4.03
2022-11-04T18:06:07.994Z,4.65
2022-11-04T18:08:34.555Z,3.20
2022-11-04T18:11:02.557Z,5.38
2022-11-04T18:13:29.269Z,5.95
2022-11-04T18:15:55.970Z,2.93
2022-11-04T18:18:22.703Z,3.45
2022-11-04T18:20:49.754Z,2.28
2022-11-04T18:23:16.147Z,4.68
2022-11-04T18:25:48.084Z,5.43
2022-11-04T18:28:16.836Z,6.83
2022-11-04T18:30:43.181Z,3.13
2022-11-04T18:33:09.732Z,6.32
2022-11-04T18:35:36.316Z,3.45
2022-11-04T18:38:02.674Z,4.53
2022-11-04T18:40:29.069Z,3.90
2022-11-04T18:42:56.278Z,4.93
2022-11-04T18:45:23.396Z,2.65
2022-11-04T18:47:49.864Z,2.40
2022-11-04T18:50:16.351Z,5.70
2022-11-04T18:52:42.678Z,6.47
2022-11-04T18:55:09.581Z,4.72
2022-11-04T18:57:35.995Z,5.40
2022-11-04T19:00:03.107Z,8.18
2022-11-04T19:02:31.517Z,6.35
2022-11-04T19:04:58.165Z,2.67
2022-11-04T19:07:25.046Z,3.58
2022-11-04T19:09:51.429Z,6.88
2022-11-04T19:12:36.515Z,5.00
2022-11-04T19:15:04.396Z,6.35
2022-11-04T19:17:30.776Z,4.27
2022-11-04T19:19:58.031Z,4.90
2022-11-04T19:22:24.370Z,10.00
2022-11-04T19:24:50.783Z,6.68
2022-11-04T19:27:19.452Z,6.45
2022-11-04T19:29:46.314Z,6.23
2022-11-04T19:32:14.378Z,6.15
2022-11-04T19:34:41.752Z,10.73
2022-11-04T19:37:08.112Z,6.72
2022-11-04T19:39:34.532Z,7.30
2022-11-04T19:42:19.499Z,5.13
2022-11-04T19:44:45.881Z,6.93
2022-11-04T19:47:12.295Z,5.10
2022-11-04T19:49:38.656Z,8.93
2022-11-04T19:52:05.024Z,4.57
2022-11-04T19:54:31.384Z,6.77
2022-11-04T19:56:57.945Z,4.13
2022-11-04T19:59:24.316Z,6.75
2022-11-04T20:01:50.837Z,8.57
2022-11-04T20:04:17.431Z,9.80
2022-11-04T20:06:43.801Z,8.17
2022-11-04T20:09:11.295Z,6.22
2022-11-04T20:11:59.410Z,9.57
2022-11-04T20:14:28.102Z,9.38
2022-11-04T20:16:54.933Z,8.55
2022-11-04T20:19:23.087Z,5.57
2022-11-04T20:21:50.170Z,9.10
2022-11-04T20:24:16.847Z,9.25
2022-11-04T20:26:44.105Z,8.10
2022-11-04T20:29:10.796Z,8.68
2022-11-04T20:31:39.010Z,11.37
2022-11-04T20:34:08.150Z,9.10
2022-11-04T20:36:35.953Z,9.25
2022-11-04T20:39:06.146Z,7.22
2022-11-04T20:41:33.071Z,13.20
2022-11-04T20:43:59.723Z,7.57
2022-11-04T20:46:29.640Z,8.20
2022-11-04T20:48:58.171Z,6.93
2022-11-04T20:51:30.599Z,6.13
2022-11-04T20:54:02.480Z,7.95
2022-11-04T20:56:31.466Z,6.73
2022-11-04T20:58:59.643Z,6.00
2022-11-04T21:01:38.349Z,4.97
2022-11-04T21:04:07.448Z,11.75
2022-11-04T21:06:37.562Z,4.63
2022-11-04T21:09:05.493Z,8.93
2022-11-04T21:11:32.449Z,7.72
2022-11-04T21:13:59.035Z,4.00
2022-11-04T21:16:25.419Z,6.22
2022-11-04T21:18:51.803Z,5.75
2022-11-04T21:21:18.326Z,7.13
2022-11-04T21:23:46.583Z,6.80
2022-11-04T21:26:21.675Z,6.35
2022-11-04T21:28:51.350Z,10.27
2022-11-04T21:31:17.697Z,9.15
2022-11-04T21:33:44.037Z,5.93
2022-11-04T21:36:14.477Z,9.38
2022-11-04T21:38:41.520Z,5.80
2022-11-04T21:41:14.233Z,4.82
2022-11-04T21:43:41.116Z,5.40
2022-11-04T21:46:15.288Z,4.80
2022-11-04T21:48:42.628Z,6.00
2022-11-04T21:51:12.599Z,7.80
2022-11-04T21:53:39.395Z,8.45
2022-11-04T21:56:09.998Z,8.10
2022-11-04T21:58:36.810Z,6.07
2022-11-04T22:01:07.347Z,11.05
2022-11-04T22:03:34.650Z,4.72
2022-11-04T22:06:04.618Z,5.88
2022-11-04T22:08:31.862Z,8.38
2022-11-04T22:11:07.092Z,4.00
2022-11-04T22:13:33.770Z,5.60
2022-11-04T22:16:00.799Z,7.85
2022-11-04T22:18:33.038Z,7.32
2022-11-04T22:21:05.911Z,6.88
2022-11-04T22:23:34.961Z,4.67
2022-11-04T22:26:07.446Z,14.05
2022-11-04T22:28:34.357Z,7.47
2022-11-04T22:31:05.700Z,6.70
2022-11-04T22:33:32.163Z,6.07
2022-11-04T22:35:58.501Z,6.47
2022-11-04T22:38:25.277Z,6.43
2022-11-04T22:40:56.137Z,5.35
2022-11-04T22:43:24.717Z,5.10
2022-11-04T22:45:52.277Z,5.45
2022-11-04T22:48:18.699Z,4.17
2022-11-04T22:50:46.683Z,6.80
2022-11-04T22:53:14.043Z,4.03
2022-11-04T22:55:40.413Z,4.68
2022-11-04T22:58:06.746Z,5.95
2022-11-04T23:00:33.105Z,3.93
2022-11-04T23:02:59.712Z,6.10
2022-11-04T23:05:28.085Z,3.53
2022-11-04T23:07:55.727Z,4.82
2022-11-04T23:10:40.674Z,4.18
2022-11-04T23:13:28.088Z,3.40
2022-11-04T23:16:13.066Z,5.68
2022-11-04T23:18:42.041Z,4.38
2022-11-04T23:21:32.127Z,5.70
2022-11-04T23:24:17.500Z,7.93
2022-11-04T23:26:47.969Z,3.40
2022-11-04T23:29:34.461Z,5.88
2022-11-04T23:32:00.945Z,9.50
2022-11-04T23:34:46.044Z,4.72
2022-11-04T23:37:13.080Z,8.10
2022-11-04T23:39:44.818Z,4.33
2022-11-04T23:42:17.739Z,3.90
2022-11-04T23:45:10.943Z,3.65
2022-11-04T23:48:01.377Z,6.93
2022-11-04T23:50:49.237Z,3.30
2022-11-04T23:53:35.949Z,1.97
2022-11-04T23:56:21.332Z,6.85
2022-11-04T23:59:06.065Z,2.95
